createdAt,value
2022-07-26T00:02:26.283Z,31.13
2022-07-26T00:04:53.041Z,33.25
2022-07-26T00:07:19.610Z,36.45
2022-07-26T00:09:48.405Z,32.35
2022-07-26T00:12:15.559Z,36.10
2022-07-26T00:14:43.501Z,38.40
2022-07-26T00:17:10.499Z,38.65
2022-07-26T00:19:37.032Z,37.63
2022-07-26T00:22:22.385Z,43.63
2022-07-26T00:24:48.808Z,39.40
2022-07-26T00:27:15.277Z,45.63
2022-07-26T00:29:41.741Z,43.97
2022-07-26T00:32:08.147Z,50.38
2022-07-26T00:34:34.698Z,48.17
2022-07-26T00:37:01.229Z,52.38
2022-07-26T00:39:28.822Z,51.60
2022-07-26T00:41:55.454Z,55.58
2022-07-26T00:44:21.941Z,53.28
2022-07-26T00:46:48.357Z,55.42
2022-07-26T00:49:14.974Z,54.80
2022-07-26T00:51:42.205Z,54.53
2022-07-26T00:54:13.246Z,46.17
2022-07-26T00:56:40.007Z,44.53
2022-07-26T00:59:06.733Z,46.60
2022-07-26T01:01:33.518Z,50.90
2022-07-26T01:04:00.059Z,50.90
2022-07-26T01:06:27.517Z,44.92
2022-07-26T01:08:54.455Z,45.97
2022-07-26T01:11:20.981Z,45.30
2022-07-26T01:13:49.306Z,46.55
2022-07-26T01:16:16.246Z,44.45
2022-07-26T01:18:43.322Z,45.83
2022-07-26T01:21:13.908Z,44.67
2022-07-26T01:23:41.412Z,47.33
2022-07-26T01:26:08.227Z,48.25
2022-07-26T01:28:37.727Z,52.40
2022-07-26T01:31:06.157Z,50.83
2022-07-26T01:33:34.773Z,52.75
2022-07-26T01:36:01.651Z,51.58
2022-07-26T01:38:28.300Z,51.65
2022-07-26T01:40:54.773Z,51.28
2022-07-26T01:43:21.202Z,48.42
2022-07-26T01:45:47.769Z,50.45
2022-07-26T01:48:14.597Z,51.60
2022-07-26T01:50:41.151Z,52.47
2022-07-26T01:53:07.607Z,51.60
2022-07-26T01:55:34.551Z,56.80
2022-07-26T01:58:01.124Z,53.05
2022-07-26T02:00:27.531Z,54.50
2022-07-26T02:02:54.044Z,53.25
2022-07-26T02:05:20.655Z,53.67
2022-07-26T02:07:47.124Z,58.00
2022-07-26T02:10:14.544Z,58.30
2022-07-26T02:12:41.505Z,54.47
2022-07-26T02:15:09.330Z,58.60
2022-07-26T02:17:35.763Z,62.83
2022-07-26T02:20:02.448Z,59.45
2022-07-26T02:22:28.932Z,62.85
2022-07-26T02:24:55.597Z,67.78
2022-07-26T02:27:22.050Z,68.85
2022-07-26T02:29:48.503Z,60.72
2022-07-26T02:32:14.905Z,66.25
2022-07-26T02:34:41.371Z,78.40
2022-07-26T02:37:07.947Z,85.35
2022-07-26T02:39:34.418Z,79.20
2022-07-26T02:42:02.298Z,71.28
2022-07-26T02:44:30.461Z,77.78
2022-07-26T02:47:00.992Z,75.65
2022-07-26T02:49:27.400Z,72.30
2022-07-26T02:51:53.768Z,69.30
2022-07-26T02:54:20.571Z,70.85
2022-07-26T02:56:47.132Z,72.03
2022-07-26T02:59:13.611Z,68.00
2022-07-26T03:02:04.571Z,64.60
2022-07-26T03:04:32.660Z,64.63
2022-07-26T03:06:59.057Z,62.92
2022-07-26T03:09:25.482Z,64.03
2022-07-26T03:14:56.059Z,63.35
2022-07-26T03:17:28.624Z,66.35
2022-07-26T03:19:55.334Z,66.00
2022-07-26T03:22:26.784Z,72.85
2022-07-26T03:24:53.737Z,68.50
2022-07-26T03:27:20.231Z,66.45
2022-07-26T03:32:30.332Z,75.13
2022-07-26T03:35:00.129Z,77.80
2022-07-26T03:37:26.975Z,74.55
2022-07-26T03:40:12.800Z,66.43
2022-07-26T03:42:39.195Z,68.45
2022-07-26T03:45:06.169Z,67.65
2022-07-26T03:47:32.558Z,68.93
2022-07-26T03:49:58.968Z,63.60
2022-07-26T03:52:25.368Z,68.65
2022-07-26T03:54:51.774Z,70.53
2022-07-26T03:57:18.216Z,68.53
2022-07-26T03:59:44.977Z,70.60
2022-07-26T04:02:11.501Z,73.05
2022-07-26T04:04:38.007Z,73.15
2022-07-26T04:07:06.344Z,69.95
2022-07-26T04:09:35.931Z,71.63
2022-07-26T04:12:02.339Z,68.07
2022-07-26T04:14:28.760Z,65.18
2022-07-26T04:19:38.954Z,67.93
2022-07-26T04:22:06.334Z,72.22
2022-07-26T04:24:32.877Z,70.30
2022-07-26T04:27:00.829Z,71.90
2022-07-26T04:29:28.037Z,70.50
2022-07-26T04:34:35.102Z,73.65
2022-07-26T04:37:09.074Z,71.38
2022-07-26T04:39:36.423Z,75.38
2022-07-26T04:42:02.918Z,71.93
2022-07-26T04:44:29.341Z,69.38
2022-07-26T04:46:55.723Z,69.28
2022-07-26T04:49:22.950Z,69.22
2022-07-26T04:51:49.426Z,74.25
2022-07-26T04:54:20.572Z,71.82
2022-07-26T04:56:47.665Z,69.28
2022-07-26T04:59:18.456Z,68.38
2022-07-26T05:01:47.841Z,69.93
2022-07-26T05:04:14.400Z,67.82
2022-07-26T05:06:40.803Z,66.20
2022-07-26T05:09:07.353Z,63.78
2022-07-26T05:11:33.773Z,63.28
2022-07-26T05:14:00.156Z,58.03
2022-07-26T05:16:26.717Z,62.63
2022-07-26T05:18:55.722Z,62.85
2022-07-26T05:21:22.180Z,64.93
2022-07-26T05:23:48.731Z,56.13
2022-07-26T05:26:15.303Z,59.13
2022-07-26T05:28:41.774Z,53.40
2022-07-26T05:31:08.368Z,58.92
2022-07-26T05:33:34.771Z,59.25
2022-07-26T05:36:01.331Z,54.67
2022-07-26T05:38:27.797Z,56.42
2022-07-26T05:40:54.213Z,56.35
2022-07-26T05:43:20.611Z,54.65
2022-07-26T05:45:47.206Z,54.85
2022-07-26T05:48:13.896Z,55.85
2022-07-26T05:50:40.496Z,58.72
2022-07-26T05:53:06.931Z,56.75
2022-07-26T05:55:33.927Z,54.97
2022-07-26T05:58:00.371Z,53.97
2022-07-26T06:00:26.813Z,55.20
2022-07-26T06:02:53.307Z,57.55
2022-07-26T06:05:20.008Z,55.63
2022-07-26T06:07:46.489Z,55.47
2022-07-26T06:10:13.179Z,57.58
2022-07-26T06:12:39.726Z,56.25
2022-07-26T06:15:15.314Z,53.00
2022-07-26T06:17:42.677Z,55.85
2022-07-26T06:20:09.748Z,54.42
2022-07-26T06:22:36.153Z,53.60
2022-07-26T06:25:02.567Z,55.20
2022-07-26T06:27:31.721Z,54.53
2022-07-26T06:29:58.228Z,53.40
2022-07-26T06:32:24.641Z,53.67
2022-07-26T06:34:51.060Z,55.40
2022-07-26T06:37:17.508Z,57.80
2022-07-26T06:39:43.921Z,58.42
2022-07-26T06:42:10.323Z,56.65
2022-07-26T06:44:36.779Z,58.67
2022-07-26T06:47:03.372Z,57.13
2022-07-26T06:49:29.871Z,61.45
2022-07-26T06:51:57.904Z,58.88
2022-07-26T06:54:24.440Z,57.90
2022-07-26T06:56:50.892Z,54.45
2022-07-26T06:59:17.341Z,56.53
2022-07-26T07:01:58.721Z,51.28
2022-07-26T07:04:27.224Z,52.15
2022-07-26T07:06:53.688Z,52.25
2022-07-26T07:09:21.609Z,50.72
2022-07-26T07:11:51.765Z,52.58
2022-07-26T07:14:22.745Z,52.50
2022-07-26T07:16:49.186Z,53.63
2022-07-26T07:19:15.682Z,55.95
2022-07-26T07:21:42.092Z,54.47
2022-07-26T07:24:09.634Z,58.25
2022-07-26T07:26:36.823Z,57.42
2022-07-26T07:29:04.274Z,56.40
2022-07-26T07:31:48.723Z,50.83
2022-07-26T07:34:18.106Z,56.70
2022-07-26T07:36:46.454Z,57.08
2022-07-26T07:39:17.644Z,59.08
2022-07-26T07:41:45.026Z,56.63
2022-07-26T07:44:11.810Z,54.80
2022-07-26T07:46:38.813Z,51.17
2022-07-26T07:49:05.854Z,51.45
2022-07-26T07:51:33.322Z,46.72
2022-07-26T07:54:06.058Z,47.63
2022-07-26T07:56:33.474Z,48.80
2022-07-26T07:59:00.104Z,48.63
2022-07-26T08:01:39.578Z,51.22
2022-07-26T08:04:07.944Z,48.47
2022-07-26T08:06:34.453Z,49.83
2022-07-26T08:09:01.069Z,49.92
2022-07-26T08:11:30.477Z,50.42
2022-07-26T08:13:57.203Z,50.80
2022-07-26T08:16:24.465Z,51.33
2022-07-26T08:18:57.047Z,48.83
2022-07-26T08:21:24.673Z,50.22
2022-07-26T08:23:54.039Z,50.00
2022-07-26T08:26:20.644Z,48.05
2022-07-26T08:28:48.175Z,48.35
2022-07-26T08:31:16.882Z,46.05
2022-07-26T08:33:52.826Z,44.53
2022-07-26T08:36:19.289Z,45.90
2022-07-26T08:38:46.320Z,43.10
2022-07-26T08:41:14.973Z,42.97
2022-07-26T08:43:43.763Z,40.97
2022-07-26T08:46:24.340Z,37.63
2022-07-26T08:48:52.355Z,33.38
2022-07-26T08:51:22.382Z,36.20
2022-07-26T08:53:50.233Z,35.95
2022-07-26T08:56:16.619Z,33.65
2022-07-26T08:58:43.788Z,46.17
2022-07-26T09:01:23.056Z,42.42
2022-07-26T09:03:52.075Z,48.20
2022-07-26T09:06:21.926Z,46.80
2022-07-26T09:08:52.894Z,42.30
2022-07-26T09:11:31.121Z,46.40
2022-07-26T09:14:06.725Z,42.95
2022-07-26T09:16:39.497Z,42.97
2022-07-26T09:19:21.344Z,42.92
2022-07-26T09:21:49.116Z,38.10
2022-07-26T09:24:35.004Z,38.15
2022-07-26T09:27:05.200Z,38.17
2022-07-26T09:29:43.158Z,40.63
2022-07-26T09:32:12.588Z,47.38
2022-07-26T09:34:51.953Z,42.30
2022-07-26T09:37:34.487Z,39.35
2022-07-26T09:40:17.439Z,38.22
2022-07-26T09:43:02.237Z,36.65
2022-07-26T09:45:30.822Z,36.88
2022-07-26T09:47:57.818Z,33.33
2022-07-26T09:50:27.862Z,34.00
2022-07-26T09:53:02.129Z,40.60
2022-07-26T09:55:39.309Z,46.58
2022-07-26T09:58:13.899Z,40.75
2022-07-26T10:00:40.682Z,40.72
2022-07-26T10:03:10.131Z,40.30
2022-07-26T10:05:37.875Z,38.97
2022-07-26T10:08:05.385Z,38.47
2022-07-26T10:10:38.985Z,37.70
2022-07-26T10:13:08.019Z,36.75
2022-07-26T10:15:38.455Z,41.90
2022-07-26T10:18:08.436Z,46.33
2022-07-26T10:20:49.912Z,45.97
2022-07-26T10:23:40.134Z,46.08
2022-07-26T10:26:21.370Z,31.33
2022-07-26T10:28:47.955Z,33.70
2022-07-26T10:31:51.293Z,36.60
2022-07-26T10:34:56.472Z,35.08
2022-07-26T10:40:22.320Z,30.52
2022-07-26T10:42:48.810Z,32.35
2022-07-26T10:45:21.219Z,26.30
2022-07-26T10:48:17.154Z,23.95
2022-07-26T10:50:46.719Z,35.65
2022-07-26T10:53:19.200Z,31.00
2022-07-26T10:55:53.635Z,26.13
2022-07-26T10:58:21.920Z,25.40
2022-07-26T11:01:03.295Z,23.95
2022-07-26T11:03:41.559Z,27.42
2022-07-26T11:06:12.245Z,28.83
2022-07-26T11:08:38.792Z,28.95
2022-07-26T11:11:05.457Z,36.58
2022-07-26T11:13:33.473Z,26.70
2022-07-26T11:16:02.609Z,20.33
2022-07-26T11:18:32.566Z,19.85
2022-07-26T11:21:15.648Z,20.42
2022-07-26T11:23:46.551Z,19.58
2022-07-26T11:26:23.269Z,19.27
2022-07-26T11:28:55.520Z,18.27
2022-07-26T11:31:55.871Z,20.23
2022-07-26T11:34:29.371Z,20.33
2022-07-26T11:36:58.905Z,23.52
2022-07-26T11:39:27.938Z,26.58
2022-07-26T11:42:01.651Z,33.15
2022-07-26T11:44:29.089Z,29.23
2022-07-26T11:46:57.643Z,31.45
2022-07-26T11:49:59.700Z,32.22
2022-07-26T11:52:25.058Z,35.97
2022-07-26T11:54:53.184Z,39.15
2022-07-26T11:57:20.113Z,35.20
2022-07-26T11:59:48.463Z,38.55
2022-07-26T12:02:15.506Z,39.33
2022-07-26T12:04:43.492Z,31.52
2022-07-26T12:07:12.346Z,31.88
2022-07-26T12:10:01.489Z,30.98
2022-07-26T12:12:31.054Z,38.63
2022-07-26T12:15:02.673Z,34.75
2022-07-26T12:17:35.129Z,28.83
2022-07-26T12:20:17.566Z,22.15
2022-07-26T12:23:04.952Z,21.10
2022-07-26T12:25:31.621Z,22.80
2022-07-26T12:27:58.090Z,20.52
2022-07-26T12:30:25.636Z,20.95
2022-07-26T12:33:02.117Z,20.83
2022-07-26T12:35:33.343Z,20.40
2022-07-26T12:37:59.955Z,17.40
2022-07-26T12:40:29.305Z,20.90
2022-07-26T12:43:01.253Z,19.50
2022-07-26T12:45:32.565Z,20.27
2022-07-26T12:48:00.870Z,17.10
2022-07-26T12:50:29.071Z,19.85
2022-07-26T12:53:07.091Z,19.10
2022-07-26T12:55:34.433Z,21.38
2022-07-26T12:58:01.271Z,22.15
2022-07-26T13:00:29.616Z,24.90
2022-07-26T13:02:57.191Z,22.38
2022-07-26T13:05:24.022Z,22.65
2022-07-26T13:07:52.785Z,21.95
2022-07-26T13:10:48.305Z,23.88
2022-07-26T13:13:16.464Z,21.42
2022-07-26T13:15:44.442Z,23.92
2022-07-26T13:18:12.948Z,21.33
2022-07-26T13:20:39.446Z,24.30
2022-07-26T13:23:12.720Z,23.30
2022-07-26T13:25:40.891Z,24.15
2022-07-26T13:28:10.040Z,21.02
2022-07-26T13:30:47.216Z,20.52
2022-07-26T13:33:16.347Z,20.52
2022-07-26T13:35:42.920Z,17.50
2022-07-26T13:38:10.089Z,16.27
2022-07-26T13:40:36.583Z,24.50
2022-07-26T13:43:07.409Z,18.40
2022-07-26T13:45:38.366Z,15.63
2022-07-26T13:48:05.656Z,18.17
2022-07-26T13:50:32.179Z,18.30
2022-07-26T13:52:59.178Z,17.92
2022-07-26T13:55:28.804Z,18.80
2022-07-26T13:57:56.636Z,17.30
2022-07-26T14:00:25.517Z,16.58
2022-07-26T14:02:52.094Z,15.65
2022-07-26T14:05:20.588Z,18.50
2022-07-26T14:07:50.596Z,20.08
2022-07-26T14:13:01.067Z,17.70
2022-07-26T14:15:27.439Z,20.90
2022-07-26T14:18:00.553Z,21.65
2022-07-26T14:20:27.353Z,23.92
2022-07-26T14:22:56.897Z,21.40
2022-07-26T14:25:25.563Z,19.42
2022-07-26T14:27:53.609Z,16.67
2022-07-26T14:30:27.380Z,18.52
2022-07-26T14:32:57.378Z,18.77
2022-07-26T14:35:25.673Z,18.23
2022-07-26T14:37:59.419Z,20.42
2022-07-26T14:40:26.148Z,18.58
2022-07-26T14:42:55.527Z,16.88
2022-07-26T14:45:38.378Z,17.00
2022-07-26T14:48:51.937Z,15.25
2022-07-26T14:51:21.149Z,16.75
2022-07-26T14:53:51.207Z,14.50
2022-07-26T14:56:40.619Z,16.38
2022-07-26T14:59:50.708Z,15.68
2022-07-26T15:02:29.331Z,17.60
2022-07-26T15:05:03.675Z,18.50
2022-07-26T15:07:47.930Z,17.88
2022-07-26T15:10:20.746Z,17.57
2022-07-26T15:12:52.174Z,16.02
2022-07-26T15:15:18.766Z,15.63
2022-07-26T15:17:53.488Z,18.52
2022-07-26T15:29:18.832Z,15.63
2022-07-26T15:35:01.735Z,14.30
2022-07-26T15:37:28.799Z,15.35
2022-07-26T15:40:13.995Z,17.98
2022-07-26T15:42:47.402Z,20.02
2022-07-26T15:45:15.372Z,17.00
2022-07-26T15:47:54.875Z,16.25
2022-07-26T15:50:29.975Z,13.52
2022-07-26T15:52:56.677Z,14.30
2022-07-26T15:55:23.618Z,14.10
2022-07-26T15:57:50.116Z,13.23
2022-07-26T16:00:17.037Z,13.15
2022-07-26T16:02:54.024Z,13.15
2022-07-26T16:05:20.905Z,12.75
2022-07-26T16:07:47.856Z,15.93
2022-07-26T16:10:14.832Z,16.10
2022-07-26T16:12:42.212Z,15.73
2022-07-26T16:15:10.383Z,13.43
2022-07-26T16:17:37.354Z,16.85
2022-07-26T16:20:04.763Z,16.63
2022-07-26T16:22:42.644Z,17.50
2022-07-26T16:25:10.115Z,17.52
2022-07-26T16:27:41.821Z,20.30
2022-07-26T16:30:43.706Z,19.75
2022-07-26T16:33:20.065Z,18.98
2022-07-26T16:35:48.492Z,20.83
2022-07-26T16:38:24.929Z,19.98
2022-07-26T16:40:53.175Z,21.60
2022-07-26T16:43:20.853Z,21.08
2022-07-26T16:45:47.278Z,20.95
2022-07-26T16:48:13.796Z,22.08
2022-07-26T16:50:40.679Z,20.25
2022-07-26T16:53:10.391Z,19.60
2022-07-26T16:55:39.543Z,19.55
2022-07-26T16:58:05.980Z,18.00
2022-07-26T17:00:32.442Z,18.67
2022-07-26T17:02:59.051Z,22.27
2022-07-26T17:05:25.489Z,17.80
2022-07-26T17:07:52.127Z,17.73
2022-07-26T17:10:18.778Z,18.67
2022-07-26T17:12:45.646Z,18.58
2022-07-26T17:15:13.809Z,16.50
2022-07-26T17:17:41.562Z,19.95
2022-07-26T17:20:10.568Z,18.38
2022-07-26T17:22:37.182Z,17.67
2022-07-26T17:25:05.340Z,19.30
2022-07-26T17:27:31.740Z,19.17
2022-07-26T17:29:59.887Z,18.98
2022-07-26T17:32:29.573Z,22.77
2022-07-26T17:34:56.279Z,18.90
2022-07-26T17:37:22.775Z,20.45
2022-07-26T17:39:52.551Z,22.10
2022-07-26T17:42:20.205Z,20.45
2022-07-26T17:44:46.687Z,18.65
2022-07-26T17:47:28.486Z,17.85
2022-07-26T17:50:08.961Z,18.42
2022-07-26T17:52:45.080Z,19.05
2022-07-26T17:55:11.531Z,21.90
2022-07-26T17:57:38.093Z,27.45
2022-07-26T18:00:06.687Z,32.95
2022-07-26T18:02:33.484Z,31.27
2022-07-26T18:04:59.986Z,43.63
2022-07-26T18:07:26.483Z,32.75
2022-07-26T18:09:52.899Z,29.80
2022-07-26T18:12:19.348Z,31.00
2022-07-26T18:14:45.782Z,30.48
2022-07-26T18:17:12.340Z,32.08
2022-07-26T18:19:38.796Z,28.63
2022-07-26T18:22:06.238Z,26.60
2022-07-26T18:24:33.089Z,27.35
2022-07-26T18:26:59.523Z,27.60
2022-07-26T18:29:25.993Z,27.02
2022-07-26T18:31:52.536Z,27.20
2022-07-26T18:34:19.031Z,30.83
2022-07-26T18:36:45.481Z,32.15
2022-07-26T18:39:12.496Z,31.85
2022-07-26T18:41:39.153Z,32.10
2022-07-26T18:44:05.886Z,30.17
2022-07-26T18:46:32.367Z,31.20
2022-07-26T18:49:00.246Z,31.15
2022-07-26T18:51:28.776Z,35.13
2022-07-26T18:53:55.257Z,29.75
2022-07-26T18:56:21.717Z,26.98
2022-07-26T18:58:48.144Z,31.63
2022-07-26T19:01:14.806Z,27.17
2022-07-26T19:03:41.273Z,26.83
2022-07-26T19:06:08.645Z,29.13
2022-07-26T19:08:35.043Z,29.45
2022-07-26T19:11:01.480Z,30.98
2022-07-26T19:13:27.913Z,34.85
2022-07-26T19:15:54.531Z,36.40
2022-07-26T19:18:20.957Z,40.53
2022-07-26T19:20:47.384Z,37.33
2022-07-26T19:23:13.938Z,36.05
2022-07-26T19:25:41.427Z,43.28
2022-07-26T19:28:08.561Z,40.38
2022-07-26T19:30:36.698Z,43.90
2022-07-26T19:33:03.205Z,39.42
2022-07-26T19:35:30.429Z,42.47
2022-07-26T19:37:57.390Z,45.58
2022-07-26T19:40:24.007Z,54.20
2022-07-26T19:42:50.430Z,40.13
2022-07-26T19:45:16.937Z,41.17
2022-07-26T19:47:44.377Z,41.30
2022-07-26T19:50:11.830Z,42.28
2022-07-26T19:52:39.057Z,41.58
2022-07-26T19:55:06.119Z,41.33
2022-07-26T19:57:32.582Z,37.72
2022-07-26T20:00:00.491Z,35.33
2022-07-26T20:02:26.935Z,36.60
2022-07-26T20:04:54.473Z,34.83
2022-07-26T20:07:21.139Z,33.40
2022-07-26T20:09:49.121Z,49.38
2022-07-26T20:12:16.181Z,42.72
2022-07-26T20:14:42.978Z,40.28
2022-07-26T20:17:12.019Z,44.05
2022-07-26T20:19:39.782Z,48.63
2022-07-26T20:22:06.610Z,52.92
2022-07-26T20:24:33.102Z,55.03
2022-07-26T20:26:59.656Z,43.22
2022-07-26T20:29:26.131Z,50.67
2022-07-26T20:31:52.550Z,56.28
2022-07-26T20:34:18.999Z,54.83
2022-07-26T20:36:46.035Z,63.60
2022-07-26T20:39:13.055Z,72.97
2022-07-26T20:41:39.925Z,67.93
2022-07-26T20:44:06.545Z,66.63
2022-07-26T20:46:33.547Z,68.38
2022-07-26T20:49:00.205Z,68.32
2022-07-26T20:51:26.659Z,66.68
2022-07-26T20:53:53.138Z,67.30
2022-07-26T20:56:19.550Z,65.25
2022-07-26T20:58:45.983Z,63.00
2022-07-26T21:01:13.823Z,64.80
2022-07-26T21:03:40.457Z,66.03
2022-07-26T21:06:06.987Z,66.32
2022-07-26T21:08:33.374Z,64.88
2022-07-26T21:10:59.797Z,62.85
2022-07-26T21:13:26.236Z,64.45
2022-07-26T21:15:54.244Z,50.72
2022-07-26T21:18:21.313Z,61.70
2022-07-26T21:20:47.966Z,43.10
2022-07-26T21:23:17.897Z,27.27
2022-07-26T21:25:44.911Z,25.52
2022-07-26T21:28:11.442Z,22.30
2022-07-26T21:30:38.324Z,20.65
2022-07-26T21:33:05.497Z,17.50
2022-07-26T21:35:32.304Z,16.88
2022-07-26T21:37:58.843Z,18.35
2022-07-26T21:40:25.461Z,20.13
2022-07-26T21:42:51.961Z,18.98
2022-07-26T21:45:18.553Z,19.13
2022-07-26T21:47:45.002Z,17.30
2022-07-26T21:50:12.129Z,18.45
2022-07-26T21:52:38.544Z,22.05
2022-07-26T21:55:05.601Z,16.83
2022-07-26T21:57:31.998Z,20.92
2022-07-26T21:59:59.161Z,30.05
2022-07-26T22:02:26.054Z,17.50
2022-07-26T22:04:52.519Z,20.05
2022-07-26T22:07:18.925Z,21.88
2022-07-26T22:09:45.368Z,15.32
2022-07-26T22:12:11.799Z,20.45
2022-07-26T22:14:38.261Z,19.05
2022-07-26T22:17:04.731Z,19.80
2022-07-26T22:19:31.230Z,18.83
2022-07-26T22:21:57.711Z,18.52
2022-07-26T22:24:24.150Z,20.10
2022-07-26T22:26:50.562Z,21.85
2022-07-26T22:29:17.001Z,18.42
2022-07-26T22:31:43.526Z,22.25
2022-07-26T22:34:10.137Z,21.55
2022-07-26T22:36:36.563Z,23.15
2022-07-26T22:39:03.202Z,20.08
2022-07-26T22:41:31.705Z,20.23
2022-07-26T22:43:59.112Z,25.40
2022-07-26T22:46:27.630Z,21.92
2022-07-26T22:48:55.707Z,20.80
2022-07-26T22:51:22.167Z,20.73
2022-07-26T22:53:48.588Z,20.63
2022-07-26T22:56:19.680Z,24.52
2022-07-26T22:58:46.834Z,22.33
2022-07-26T23:01:13.702Z,20.67
2022-07-26T23:03:41.429Z,20.80
2022-07-26T23:06:21.009Z,23.45
2022-07-26T23:08:57.296Z,21.20
2022-07-26T23:11:23.733Z,20.52
2022-07-26T23:13:50.142Z,20.77
2022-07-26T23:16:16.644Z,20.23
2022-07-26T23:18:43.074Z,19.33
2022-07-26T23:21:09.526Z,19.80
2022-07-26T23:23:35.973Z,19.85
2022-07-26T23:26:02.470Z,21.42
2022-07-26T23:28:36.210Z,20.17
2022-07-26T23:31:09.038Z,19.98
2022-07-26T23:33:52.594Z,20.00
2022-07-26T23:36:30.237Z,17.33
2022-07-26T23:38:58.706Z,18.33
2022-07-26T23:41:26.547Z,16.67
2022-07-26T23:43:54.023Z,19.23
2022-07-26T23:46:20.950Z,18.15
2022-07-26T23:48:47.543Z,18.77
2022-07-26T23:51:14.768Z,18.70
2022-07-26T23:53:41.334Z,17.95
2022-07-26T23:56:08.020Z,18.20
2022-07-26T23:58:34.444Z,18.98
